sensor_id;sensor_type;location;lat;lon;timestamp;P1;durP1;ratioP1;P2;durP2;ratioP2
49972;SDS011;65693;49.798;10.968;2023-03-05T00:01:06;6.22;;;3.40;;
49972;SDS011;65693;49.798;10.968;2023-03-05T00:03:35;5.53;;;3.38;;
49972;SDS011;65693;49.798;10.968;2023-03-05T00:06:05;5.97;;;3.28;;
49972;SDS011;65693;49.798;10.968;2023-03-05T00:08:36;5.75;;;3.25;;
49972;SDS011;65693;49.798;10.968;2023-03-05T00:11:11;7.43;;;3.42;;
49972;SDS011;65693;49.798;10.968;2023-03-05T00:13:39;7.47;;;3.70;;
49972;SDS011;65693;49.798;10.968;2023-03-05T00:16:09;6.35;;;3.42;;
49972;SDS011;65693;49.798;10.968;2023-03-05T00:18:41;6.15;;;3.50;;
49972;SDS011;65693;49.798;10.968;2023-03-05T00:21:18;7.10;;;3.40;;
49972;SDS011;65693;49.798;10.968;2023-03-05T00:23:48;5.72;;;3.28;;
49972;SDS011;65693;49.798;10.968;2023-03-05T00:26:17;6.13;;;3.30;;
49972;SDS011;65693;49.798;10.968;2023-03-05T00:28:48;5.63;;;3.30;;
49972;SDS011;65693;49.798;10.968;2023-03-05T00:31:30;6.00;;;3.55;;
49972;SDS011;65693;49.798;10.968;2023-03-05T00:34:01;7.35;;;3.65;;
49972;SDS011;65693;49.798;10.968;2023-03-05T00:36:39;6.57;;;3.70;;
49972;SDS011;65693;49.798;10.968;2023-03-05T00:39:11;7.20;;;3.85;;
49972;SDS011;65693;49.798;10.968;2023-03-05T00:41:43;6.18;;;3.33;;
49972;SDS011;65693;49.798;10.968;2023-03-05T00:44:11;6.65;;;3.92;;
49972;SDS011;65693;49.798;10.968;2023-03-05T00:46:53;5.28;;;2.80;;
49972;SDS011;65693;49.798;10.968;2023-03-05T00:49:22;6.03;;;3.20;;
49972;SDS011;65693;49.798;10.968;2023-03-05T00:51:52;6.47;;;3.85;;
49972;SDS011;65693;49.798;10.968;2023-03-05T00:54:19;6.13;;;3.40;;
49972;SDS011;65693;49.798;10.968;2023-03-05T00:56:47;7.50;;;3.88;;
49972;SDS011;65693;49.798;10.968;2023-03-05T00:59:15;7.22;;;4.03;;
49972;SDS011;65693;49.798;10.968;2023-03-05T01:01:47;7.30;;;3.78;;
49972;SDS011;65693;49.798;10.968;2023-03-05T01:04:22;7.47;;;3.83;;
49972;SDS011;65693;49.798;10.968;2023-03-05T01:06:49;6.95;;;3.50;;
49972;SDS011;65693;49.798;10.968;2023-03-05T01:09:19;6.15;;;3.50;;
49972;SDS011;65693;49.798;10.968;2023-03-05T01:11:50;6.50;;;3.53;;
49972;SDS011;65693;49.798;10.968;2023-03-05T01:14:30;6.15;;;3.13;;
49972;SDS011;65693;49.798;10.968;2023-03-05T01:17:04;7.75;;;3.35;;
49972;SDS011;65693;49.798;10.968;2023-03-05T01:19:32;6.22;;;3.00;;
49972;SDS011;65693;49.798;10.968;2023-03-05T01:22:00;7.15;;;3.70;;
49972;SDS011;65693;49.798;10.968;2023-03-05T01:24:29;5.90;;;3.35;;
49972;SDS011;65693;49.798;10.968;2023-03-05T01:27:03;6.18;;;3.30;;
49972;SDS011;65693;49.798;10.968;2023-03-05T01:29:35;6.85;;;3.53;;
49972;SDS011;65693;49.798;10.968;2023-03-05T01:32:15;7.50;;;3.33;;
49972;SDS011;65693;49.798;10.968;2023-03-05T01:34:45;4.68;;;2.83;;
49972;SDS011;65693;49.798;10.968;2023-03-05T01:37:15;6.55;;;3.38;;
49972;SDS011;65693;49.798;10.968;2023-03-05T01:39:44;6.75;;;3.67;;
49972;SDS011;65693;49.798;10.968;2023-03-05T01:42:11;6.05;;;3.22;;
49972;SDS011;65693;49.798;10.968;2023-03-05T01:47:35;4.38;;;2.80;;
49972;SDS011;65693;49.798;10.968;2023-03-05T01:50:05;5.97;;;3.25;;
49972;SDS011;65693;49.798;10.968;2023-03-05T01:52:37;7.88;;;3.35;;
49972;SDS011;65693;49.798;10.968;2023-03-05T01:55:08;5.43;;;3.20;;
49972;SDS011;65693;49.798;10.968;2023-03-05T01:57:43;7.10;;;2.90;;
49972;SDS011;65693;49.798;10.968;2023-03-05T02:00:13;5.47;;;3.40;;
49972;SDS011;65693;49.798;10.968;2023-03-05T02:02:47;5.18;;;3.15;;
49972;SDS011;65693;49.798;10.968;2023-03-05T02:05:20;6.22;;;3.03;;
49972;SDS011;65693;49.798;10.968;2023-03-05T02:07:55;7.68;;;3.88;;
49972;SDS011;65693;49.798;10.968;2023-03-05T02:10:25;7.90;;;3.22;;
49972;SDS011;65693;49.798;10.968;2023-03-05T02:12:56;6.57;;;3.40;;
49972;SDS011;65693;49.798;10.968;2023-03-05T02:15:31;6.22;;;3.65;;
49972;SDS011;65693;49.798;10.968;2023-03-05T02:18:01;5.07;;;2.85;;
49972;SDS011;65693;49.798;10.968;2023-03-05T02:20:29;4.55;;;2.78;;
49972;SDS011;65693;49.798;10.968;2023-03-05T02:23:03;5.50;;;3.00;;
49972;SDS011;65693;49.798;10.968;2023-03-05T02:25:33;4.93;;;2.90;;
49972;SDS011;65693;49.798;10.968;2023-03-05T02:28:06;5.85;;;3.13;;
49972;SDS011;65693;49.798;10.968;2023-03-05T02:30:41;6.53;;;2.90;;
49972;SDS011;65693;49.798;10.968;2023-03-05T02:33:12;4.65;;;2.65;;
49972;SDS011;65693;49.798;10.968;2023-03-05T02:35:42;6.78;;;3.22;;
49972;SDS011;65693;49.798;10.968;2023-03-05T02:38:24;7.10;;;3.15;;
49972;SDS011;65693;49.798;10.968;2023-03-05T02:40:53;5.95;;;2.97;;
49972;SDS011;65693;49.798;10.968;2023-03-05T02:43:23;5.40;;;3.17;;
49972;SDS011;65693;49.798;10.968;2023-03-05T02:45:59;5.63;;;2.65;;
49972;SDS011;65693;49.798;10.968;2023-03-05T02:48:28;4.72;;;2.63;;
49972;SDS011;65693;49.798;10.968;2023-03-05T02:50:55;5.05;;;3.05;;
49972;SDS011;65693;49.798;10.968;2023-03-05T02:53:26;6.40;;;3.40;;
49972;SDS011;65693;49.798;10.968;2023-03-05T02:55:53;4.43;;;2.95;;
49972;SDS011;65693;49.798;10.968;2023-03-05T02:58:22;6.28;;;3.10;;
49972;SDS011;65693;49.798;10.968;2023-03-05T03:00:52;4.63;;;2.80;;
49972;SDS011;65693;49.798;10.968;2023-03-05T03:03:27;4.72;;;2.65;;
49972;SDS011;65693;49.798;10.968;2023-03-05T03:05:55;4.82;;;2.97;;
49972;SDS011;65693;49.798;10.968;2023-03-05T03:08:29;4.32;;;2.58;;
49972;SDS011;65693;49.798;10.968;2023-03-05T03:11:02;5.63;;;2.65;;
49972;SDS011;65693;49.798;10.968;2023-03-05T03:13:33;5.38;;;3.40;;
49972;SDS011;65693;49.798;10.968;2023-03-05T03:16:14;5.03;;;2.78;;
49972;SDS011;65693;49.798;10.968;2023-03-05T03:18:44;5.72;;;2.67;;
49972;SDS011;65693;49.798;10.968;2023-03-05T03:21:19;5.30;;;2.75;;
49972;SDS011;65693;49.798;10.968;2023-03-05T03:23:50;6.72;;;2.85;;
49972;SDS011;65693;49.798;10.968;2023-03-05T03:26:17;5.18;;;3.03;;
49972;SDS011;65693;49.798;10.968;2023-03-05T03:28:45;5.13;;;2.88;;
49972;SDS011;65693;49.798;10.968;2023-03-05T03:31:15;5.28;;;2.65;;
49972;SDS011;65693;49.798;10.968;2023-03-05T03:33:46;4.15;;;2.30;;
49972;SDS011;65693;49.798;10.968;2023-03-05T03:36:15;4.38;;;2.42;;
49972;SDS011;65693;49.798;10.968;2023-03-05T03:38:45;5.78;;;2.97;;
49972;SDS011;65693;49.798;10.968;2023-03-05T03:41:16;5.55;;;2.90;;
49972;SDS011;65693;49.798;10.968;2023-03-05T03:43:44;5.10;;;2.38;;
49972;SDS011;65693;49.798;10.968;2023-03-05T03:46:14;4.82;;;2.50;;
49972;SDS011;65693;49.798;10.968;2023-03-05T03:48:44;4.25;;;2.50;;
49972;SDS011;65693;49.798;10.968;2023-03-05T03:51:18;5.03;;;2.60;;
49972;SDS011;65693;49.798;10.968;2023-03-05T03:53:48;4.50;;;2.30;;
49972;SDS011;65693;49.798;10.968;2023-03-05T03:56:18;3.53;;;2.17;;
49972;SDS011;65693;49.798;10.968;2023-03-05T03:58:48;4.75;;;2.63;;
49972;SDS011;65693;49.798;10.968;2023-03-05T04:01:16;5.35;;;2.15;;
49972;SDS011;65693;49.798;10.968;2023-03-05T04:03:44;5.35;;;2.33;;
49972;SDS011;65693;49.798;10.968;2023-03-05T04:06:19;3.67;;;2.33;;
49972;SDS011;65693;49.798;10.968;2023-03-05T04:08:48;4.47;;;2.53;;
49972;SDS011;65693;49.798;10.968;2023-03-05T04:11:22;3.80;;;2.22;;
49972;SDS011;65693;49.798;10.968;2023-03-05T04:13:49;5.57;;;2.25;;
49972;SDS011;65693;49.798;10.968;2023-03-05T04:16:20;5.03;;;2.50;;
49972;SDS011;65693;49.798;10.968;2023-03-05T04:18:52;4.38;;;2.20;;
49972;SDS011;65693;49.798;10.968;2023-03-05T04:21:23;3.72;;;2.42;;
49972;SDS011;65693;49.798;10.968;2023-03-05T04:23:57;4.95;;;2.58;;
49972;SDS011;65693;49.798;10.968;2023-03-05T04:26:30;5.53;;;2.30;;
49972;SDS011;65693;49.798;10.968;2023-03-05T04:29:00;5.43;;;2.53;;
49972;SDS011;65693;49.798;10.968;2023-03-05T04:31:30;4.43;;;2.55;;
49972;SDS011;65693;49.798;10.968;2023-03-05T04:34:00;4.28;;;2.60;;
49972;SDS011;65693;49.798;10.968;2023-03-05T04:36:28;4.43;;;2.53;;
49972;SDS011;65693;49.798;10.968;2023-03-05T04:38:57;5.68;;;2.50;;
49972;SDS011;65693;49.798;10.968;2023-03-05T04:41:25;4.53;;;2.42;;
49972;SDS011;65693;49.798;10.968;2023-03-05T04:43:58;5.53;;;2.55;;
49972;SDS011;65693;49.798;10.968;2023-03-05T04:46:28;4.55;;;2.30;;
49972;SDS011;65693;49.798;10.968;2023-03-05T04:48:58;4.72;;;2.35;;
49972;SDS011;65693;49.798;10.968;2023-03-05T04:51:27;5.78;;;2.60;;
49972;SDS011;65693;49.798;10.968;2023-03-05T04:54:04;3.90;;;2.17;;
49972;SDS011;65693;49.798;10.968;2023-03-05T04:56:34;5.32;;;2.40;;
49972;SDS011;65693;49.798;10.968;2023-03-05T04:59:03;5.03;;;2.55;;
49972;SDS011;65693;49.798;10.968;2023-03-05T05:01:33;4.88;;;2.40;;
49972;SDS011;65693;49.798;10.968;2023-03-05T05:04:02;4.40;;;2.42;;
49972;SDS011;65693;49.798;10.968;2023-03-05T05:06:34;3.97;;;2.30;;
49972;SDS011;65693;49.798;10.968;2023-03-05T05:09:02;5.75;;;2.72;;
49972;SDS011;65693;49.798;10.968;2023-03-05T05:11:29;4.18;;;2.40;;
49972;SDS011;65693;49.798;10.968;2023-03-05T05:14:23;5.03;;;2.35;;
49972;SDS011;65693;49.798;10.968;2023-03-05T05:16:50;5.43;;;2.42;;
49972;SDS011;65693;49.798;10.968;2023-03-05T05:19:22;5.00;;;2.47;;
49972;SDS011;65693;49.798;10.968;2023-03-05T05:21:51;4.63;;;2.30;;
49972;SDS011;65693;49.798;10.968;2023-03-05T05:24:18;3.92;;;2.17;;
49972;SDS011;65693;49.798;10.968;2023-03-05T05:26:45;3.55;;;2.10;;
49972;SDS011;65693;49.798;10.968;2023-03-05T05:29:17;4.90;;;2.75;;
49972;SDS011;65693;49.798;10.968;2023-03-05T05:31:48;5.50;;;2.40;;
49972;SDS011;65693;49.798;10.968;2023-03-05T05:34:19;3.95;;;2.22;;
49972;SDS011;65693;49.798;10.968;2023-03-05T05:36:50;4.60;;;2.50;;
49972;SDS011;65693;49.798;10.968;2023-03-05T05:39:21;3.95;;;2.38;;
49972;SDS011;65693;49.798;10.968;2023-03-05T05:41:51;4.82;;;2.30;;
49972;SDS011;65693;49.798;10.968;2023-03-05T05:44:24;5.65;;;3.15;;
49972;SDS011;65693;49.798;10.968;2023-03-05T05:46:52;5.07;;;2.63;;
49972;SDS011;65693;49.798;10.968;2023-03-05T05:49:20;3.90;;;2.17;;
49972;SDS011;65693;49.798;10.968;2023-03-05T05:51:48;3.70;;;2.13;;
49972;SDS011;65693;49.798;10.968;2023-03-05T05:54:17;5.43;;;2.63;;
49972;SDS011;65693;49.798;10.968;2023-03-05T05:56:43;4.80;;;3.25;;
49972;SDS011;65693;49.798;10.968;2023-03-05T05:59:09;5.30;;;2.60;;
49972;SDS011;65693;49.798;10.968;2023-03-05T06:01:42;5.28;;;2.35;;
49972;SDS011;65693;49.798;10.968;2023-03-05T06:04:17;4.43;;;2.45;;
49972;SDS011;65693;49.798;10.968;2023-03-05T06:06:47;5.00;;;2.92;;
49972;SDS011;65693;49.798;10.968;2023-03-05T06:09:15;5.50;;;2.70;;
49972;SDS011;65693;49.798;10.968;2023-03-05T06:11:45;4.85;;;2.50;;
49972;SDS011;65693;49.798;10.968;2023-03-05T06:14:15;4.97;;;2.58;;
49972;SDS011;65693;49.798;10.968;2023-03-05T06:16:46;5.15;;;2.90;;
49972;SDS011;65693;49.798;10.968;2023-03-05T06:19:14;5.07;;;2.28;;
49972;SDS011;65693;49.798;10.968;2023-03-05T06:21:42;4.80;;;2.38;;
49972;SDS011;65693;49.798;10.968;2023-03-05T06:24:13;5.45;;;2.45;;
49972;SDS011;65693;49.798;10.968;2023-03-05T06:26:41;6.70;;;2.90;;
49972;SDS011;65693;49.798;10.968;2023-03-05T06:29:11;6.80;;;3.17;;
49972;SDS011;65693;49.798;10.968;2023-03-05T06:31:56;4.75;;;2.42;;
49972;SDS011;65693;49.798;10.968;2023-03-05T06:34:25;6.63;;;3.05;;
49972;SDS011;65693;49.798;10.968;2023-03-05T06:36:55;4.95;;;2.58;;
49972;SDS011;65693;49.798;10.968;2023-03-05T06:39:25;14.75;;;3.60;;
49972;SDS011;65693;49.798;10.968;2023-03-05T06:41:53;9.25;;;3.50;;
49972;SDS011;65693;49.798;10.968;2023-03-05T06:44:28;8.07;;;2.78;;
49972;SDS011;65693;49.798;10.968;2023-03-05T06:46:56;5.80;;;3.08;;
49972;SDS011;65693;49.798;10.968;2023-03-05T06:49:24;6.18;;;3.25;;
49972;SDS011;65693;49.798;10.968;2023-03-05T06:51:52;6.28;;;3.15;;
49972;SDS011;65693;49.798;10.968;2023-03-05T06:54:18;7.70;;;3.33;;
49972;SDS011;65693;49.798;10.968;2023-03-05T06:56:46;7.32;;;3.05;;
49972;SDS011;65693;49.798;10.968;2023-03-05T06:59:16;5.90;;;3.25;;
49972;SDS011;65693;49.798;10.968;2023-03-05T07:01:47;6.40;;;3.15;;
49972;SDS011;65693;49.798;10.968;2023-03-05T07:04:17;8.27;;;3.22;;
49972;SDS011;65693;49.798;10.968;2023-03-05T07:06:49;5.22;;;3.03;;
49972;SDS011;65693;49.798;10.968;2023-03-05T07:09:24;6.68;;;3.65;;
49972;SDS011;65693;49.798;10.968;2023-03-05T07:11:52;8.02;;;3.10;;
49972;SDS011;65693;49.798;10.968;2023-03-05T07:14:19;5.65;;;2.70;;
49972;SDS011;65693;49.798;10.968;2023-03-05T07:16:49;5.78;;;2.80;;
49972;SDS011;65693;49.798;10.968;2023-03-05T07:19:19;8.00;;;2.97;;
49972;SDS011;65693;49.798;10.968;2023-03-05T07:21:48;6.05;;;2.83;;
49972;SDS011;65693;49.798;10.968;2023-03-05T07:24:16;5.80;;;3.38;;
49972;SDS011;65693;49.798;10.968;2023-03-05T07:26:45;6.60;;;3.10;;
49972;SDS011;65693;49.798;10.968;2023-03-05T07:29:12;6.05;;;3.00;;
49972;SDS011;65693;49.798;10.968;2023-03-05T07:31:42;5.80;;;2.80;;
49972;SDS011;65693;49.798;10.968;2023-03-05T07:34:13;8.27;;;3.20;;
49972;SDS011;65693;49.798;10.968;2023-03-05T07:36:56;5.57;;;3.00;;
49972;SDS011;65693;49.798;10.968;2023-03-05T07:39:27;5.55;;;2.85;;
49972;SDS011;65693;49.798;10.968;2023-03-05T07:41:58;4.80;;;2.60;;
49972;SDS011;65693;49.798;10.968;2023-03-05T07:44:27;5.22;;;2.65;;
49972;SDS011;65693;49.798;10.968;2023-03-05T07:46:53;6.03;;;2.53;;
49972;SDS011;65693;49.798;10.968;2023-03-05T07:49:20;4.40;;;2.53;;
49972;SDS011;65693;49.798;10.968;2023-03-05T07:51:51;6.00;;;2.80;;
49972;SDS011;65693;49.798;10.968;2023-03-05T07:54:19;4.30;;;2.50;;
49972;SDS011;65693;49.798;10.968;2023-03-05T07:56:46;6.35;;;3.47;;
49972;SDS011;65693;49.798;10.968;2023-03-05T07:59:15;6.47;;;4.03;;
49972;SDS011;65693;49.798;10.968;2023-03-05T08:01:43;5.80;;;2.90;;
49972;SDS011;65693;49.798;10.968;2023-03-05T08:04:11;4.53;;;2.72;;
49972;SDS011;65693;49.798;10.968;2023-03-05T08:06:41;5.13;;;2.80;;
49972;SDS011;65693;49.798;10.968;2023-03-05T08:09:14;4.70;;;2.55;;
49972;SDS011;65693;49.798;10.968;2023-03-05T08:11:42;4.40;;;2.33;;
49972;SDS011;65693;49.798;10.968;2023-03-05T08:14:10;5.50;;;2.58;;
49972;SDS011;65693;49.798;10.968;2023-03-05T08:16:37;5.03;;;2.72;;
49972;SDS011;65693;49.798;10.968;2023-03-05T08:19:05;5.10;;;2.53;;
49972;SDS011;65693;49.798;10.968;2023-03-05T08:21:34;4.75;;;2.35;;
49972;SDS011;65693;49.798;10.968;2023-03-05T08:24:04;4.95;;;2.72;;
49972;SDS011;65693;49.798;10.968;2023-03-05T08:26:37;5.90;;;2.55;;
49972;SDS011;65693;49.798;10.968;2023-03-05T08:29:09;6.97;;;2.67;;
49972;SDS011;65693;49.798;10.968;2023-03-05T08:31:38;6.63;;;2.88;;
49972;SDS011;65693;49.798;10.968;2023-03-05T08:34:07;5.15;;;2.47;;
49972;SDS011;65693;49.798;10.968;2023-03-05T08:36:34;4.43;;;2.28;;
49972;SDS011;65693;49.798;10.968;2023-03-05T08:39:05;5.20;;;2.42;;
49972;SDS011;65693;49.798;10.968;2023-03-05T08:41:42;6.95;;;2.60;;
49972;SDS011;65693;49.798;10.968;2023-03-05T08:44:09;5.22;;;2.63;;
49972;SDS011;65693;49.798;10.968;2023-03-05T08:46:39;5.38;;;2.90;;
49972;SDS011;65693;49.798;10.968;2023-03-05T08:49:08;5.70;;;2.58;;
49972;SDS011;65693;49.798;10.968;2023-03-05T08:51:43;4.53;;;2.35;;
49972;SDS011;65693;49.798;10.968;2023-03-05T08:54:13;4.32;;;2.30;;
49972;SDS011;65693;49.798;10.968;2023-03-05T08:56:59;4.10;;;2.20;;
49972;SDS011;65693;49.798;10.968;2023-03-05T08:59:26;4.07;;;2.30;;
49972;SDS011;65693;49.798;10.968;2023-03-05T09:01:53;4.93;;;3.05;;
49972;SDS011;65693;49.798;10.968;2023-03-05T09:04:24;5.25;;;2.55;;
49972;SDS011;65693;49.798;10.968;2023-03-05T09:06:55;6.30;;;2.97;;
49972;SDS011;65693;49.798;10.968;2023-03-05T09:09:23;4.45;;;2.28;;
49972;SDS011;65693;49.798;10.968;2023-03-05T09:11:50;5.85;;;2.40;;
49972;SDS011;65693;49.798;10.968;2023-03-05T09:14:26;4.18;;;2.38;;
49972;SDS011;65693;49.798;10.968;2023-03-05T09:16:53;5.40;;;3.00;;
49972;SDS011;65693;49.798;10.968;2023-03-05T09:19:19;4.53;;;2.17;;
49972;SDS011;65693;49.798;10.968;2023-03-05T09:21:50;4.72;;;2.50;;
49972;SDS011;65693;49.798;10.968;2023-03-05T09:24:20;4.57;;;2.25;;
49972;SDS011;65693;49.798;10.968;2023-03-05T09:26:48;4.95;;;2.28;;
49972;SDS011;65693;49.798;10.968;2023-03-05T09:29:16;3.63;;;2.20;;
49972;SDS011;65693;49.798;10.968;2023-03-05T09:31:46;4.20;;;2.17;;
49972;SDS011;65693;49.798;10.968;2023-03-05T09:34:15;4.43;;;2.17;;
49972;SDS011;65693;49.798;10.968;2023-03-05T09:36:57;5.68;;;2.70;;
49972;SDS011;65693;49.798;10.968;2023-03-05T09:39:23;4.45;;;2.40;;
49972;SDS011;65693;49.798;10.968;2023-03-05T09:41:57;4.78;;;2.50;;
49972;SDS011;65693;49.798;10.968;2023-03-05T09:44:50;4.70;;;2.30;;
49972;SDS011;65693;49.798;10.968;2023-03-05T09:47:36;4.00;;;2.63;;
49972;SDS011;65693;49.798;10.968;2023-03-05T09:50:22;3.95;;;2.22;;
49972;SDS011;65693;49.798;10.968;2023-03-05T09:56:09;4.25;;;2.08;;
49972;SDS011;65693;49.798;10.968;2023-03-05T09:58:39;5.18;;;2.28;;
49972;SDS011;65693;49.798;10.968;2023-03-05T10:01:07;4.28;;;2.08;;
49972;SDS011;65693;49.798;10.968;2023-03-05T10:03:41;4.97;;;2.30;;
49972;SDS011;65693;49.798;10.968;2023-03-05T10:06:16;4.63;;;2.47;;
49972;SDS011;65693;49.798;10.968;2023-03-05T10:08:52;4.22;;;2.10;;
49972;SDS011;65693;49.798;10.968;2023-03-05T10:14:10;4.10;;;2.20;;
49972;SDS011;65693;49.798;10.968;2023-03-05T10:16:44;5.20;;;2.53;;
49972;SDS011;65693;49.798;10.968;2023-03-05T10:19:28;4.82;;;2.17;;
49972;SDS011;65693;49.798;10.968;2023-03-05T10:22:20;4.18;;;1.98;;
49972;SDS011;65693;49.798;10.968;2023-03-05T10:25:01;4.82;;;2.30;;
49972;SDS011;65693;49.798;10.968;2023-03-05T10:27:42;3.97;;;2.05;;
49972;SDS011;65693;49.798;10.968;2023-03-05T10:33:20;4.50;;;2.17;;
49972;SDS011;65693;49.798;10.968;2023-03-05T10:39:02;4.10;;;1.88;;
49972;SDS011;65693;49.798;10.968;2023-03-05T10:41:41;5.32;;;2.30;;
49972;SDS011;65693;49.798;10.968;2023-03-05T10:44:17;3.88;;;2.05;;
49972;SDS011;65693;49.798;10.968;2023-03-05T10:46:53;5.15;;;2.30;;
49972;SDS011;65693;49.798;10.968;2023-03-05T10:49:25;4.40;;;2.53;;
49972;SDS011;65693;49.798;10.968;2023-03-05T10:51:57;5.55;;;2.28;;
49972;SDS011;65693;49.798;10.968;2023-03-05T10:54:29;3.67;;;2.03;;
49972;SDS011;65693;49.798;10.968;2023-03-05T10:57:09;4.10;;;1.98;;
49972;SDS011;65693;49.798;10.968;2023-03-05T10:59:46;3.72;;;2.13;;
49972;SDS011;65693;49.798;10.968;2023-03-05T11:02:16;3.90;;;2.15;;
49972;SDS011;65693;49.798;10.968;2023-03-05T11:05:00;4.78;;;2.28;;
49972;SDS011;65693;49.798;10.968;2023-03-05T11:07:36;3.70;;;1.92;;
49972;SDS011;65693;49.798;10.968;2023-03-05T11:10:16;5.32;;;2.55;;
49972;SDS011;65693;49.798;10.968;2023-03-05T11:12:45;5.30;;;2.25;;
49972;SDS011;65693;49.798;10.968;2023-03-05T11:15:26;4.22;;;2.10;;
49972;SDS011;65693;49.798;10.968;2023-03-05T11:18:15;3.45;;;1.90;;
49972;SDS011;65693;49.798;10.968;2023-03-05T11:20:46;4.85;;;2.28;;
49972;SDS011;65693;49.798;10.968;2023-03-05T11:23:21;4.55;;;1.98;;
49972;SDS011;65693;49.798;10.968;2023-03-05T11:25:53;3.95;;;2.22;;
49972;SDS011;65693;49.798;10.968;2023-03-05T11:28:22;5.72;;;2.35;;
49972;SDS011;65693;49.798;10.968;2023-03-05T11:30:54;4.38;;;2.10;;
49972;SDS011;65693;49.798;10.968;2023-03-05T11:33:25;4.80;;;2.00;;
49972;SDS011;65693;49.798;10.968;2023-03-05T11:38:52;4.18;;;1.90;;
49972;SDS011;65693;49.798;10.968;2023-03-05T11:41:27;3.60;;;1.77;;
49972;SDS011;65693;49.798;10.968;2023-03-05T11:44:09;3.40;;;1.92;;
49972;SDS011;65693;49.798;10.968;2023-03-05T11:46:41;3.92;;;1.90;;
49972;SDS011;65693;49.798;10.968;2023-03-05T11:49:11;4.10;;;2.00;;
49972;SDS011;65693;49.798;10.968;2023-03-05T11:51:44;3.50;;;1.90;;
49972;SDS011;65693;49.798;10.968;2023-03-05T11:54:27;3.78;;;1.95;;
49972;SDS011;65693;49.798;10.968;2023-03-05T11:57:07;4.07;;;1.90;;
49972;SDS011;65693;49.798;10.968;2023-03-05T11:59:42;3.90;;;1.85;;
49972;SDS011;65693;49.798;10.968;2023-03-05T12:02:56;4.20;;;1.70;;
49972;SDS011;65693;49.798;10.968;2023-03-05T12:05:30;3.03;;;1.95;;
49972;SDS011;65693;49.798;10.968;2023-03-05T12:08:02;3.78;;;1.90;;
49972;SDS011;65693;49.798;10.968;2023-03-05T12:10:35;2.97;;;1.70;;
49972;SDS011;65693;49.798;10.968;2023-03-05T12:13:05;3.20;;;1.90;;
49972;SDS011;65693;49.798;10.968;2023-03-05T12:15:46;3.97;;;1.90;;
49972;SDS011;65693;49.798;10.968;2023-03-05T12:18:36;4.68;;;2.40;;
49972;SDS011;65693;49.798;10.968;2023-03-05T12:21:13;3.22;;;1.75;;
49972;SDS011;65693;49.798;10.968;2023-03-05T12:23:52;2.83;;;1.60;;
49972;SDS011;65693;49.798;10.968;2023-03-05T12:29:38;2.97;;;1.60;;
49972;SDS011;65693;49.798;10.968;2023-03-05T12:35:36;3.17;;;1.70;;
49972;SDS011;65693;49.798;10.968;2023-03-05T12:44:17;3.40;;;1.70;;
49972;SDS011;65693;49.798;10.968;2023-03-05T12:50:07;3.00;;;1.90;;
49972;SDS011;65693;49.798;10.968;2023-03-05T12:53:13;3.58;;;1.77;;
49972;SDS011;65693;49.798;10.968;2023-03-05T12:55:45;3.83;;;2.35;;
49972;SDS011;65693;49.798;10.968;2023-03-05T12:58:32;3.72;;;1.70;;
49972;SDS011;65693;49.798;10.968;2023-03-05T13:04:27;4.28;;;1.70;;
49972;SDS011;65693;49.798;10.968;2023-03-05T13:07:01;3.67;;;1.70;;
49972;SDS011;65693;49.798;10.968;2023-03-05T13:09:31;3.13;;;1.70;;
49972;SDS011;65693;49.798;10.968;2023-03-05T13:12:03;2.85;;;1.70;;
49972;SDS011;65693;49.798;10.968;2023-03-05T13:14:41;4.38;;;1.73;;
49972;SDS011;65693;49.798;10.968;2023-03-05T13:20:34;4.40;;;1.85;;
49972;SDS011;65693;49.798;10.968;2023-03-05T13:23:19;3.22;;;1.80;;
49972;SDS011;65693;49.798;10.968;2023-03-05T13:25:58;3.30;;;1.80;;
49972;SDS011;65693;49.798;10.968;2023-03-05T13:28:27;3.40;;;1.90;;
49972;SDS011;65693;49.798;10.968;2023-03-05T13:30:56;3.90;;;1.83;;
49972;SDS011;65693;49.798;10.968;2023-03-05T13:33:35;2.80;;;1.63;;
49972;SDS011;65693;49.798;10.968;2023-03-05T13:36:02;3.70;;;1.83;;
49972;SDS011;65693;49.798;10.968;2023-03-05T13:38:32;3.35;;;1.92;;
49972;SDS011;65693;49.798;10.968;2023-03-05T13:41:05;3.60;;;1.70;;
49972;SDS011;65693;49.798;10.968;2023-03-05T13:43:46;3.42;;;1.90;;
49972;SDS011;65693;49.798;10.968;2023-03-05T13:46:23;3.03;;;1.70;;
49972;SDS011;65693;49.798;10.968;2023-03-05T13:49:15;4.20;;;1.70;;
49972;SDS011;65693;49.798;10.968;2023-03-05T13:51:47;3.45;;;1.45;;
49972;SDS011;65693;49.798;10.968;2023-03-05T13:54:18;3.70;;;1.67;;
49972;SDS011;65693;49.798;10.968;2023-03-05T13:56:51;3.33;;;1.48;;
49972;SDS011;65693;49.798;10.968;2023-03-05T13:59:21;2.65;;;1.52;;
49972;SDS011;65693;49.798;10.968;2023-03-05T14:01:54;2.97;;;1.80;;
49972;SDS011;65693;49.798;10.968;2023-03-05T14:04:24;2.65;;;1.67;;
49972;SDS011;65693;49.798;10.968;2023-03-05T14:06:53;3.33;;;1.88;;
49972;SDS011;65693;49.798;10.968;2023-03-05T14:09:25;3.40;;;1.80;;
49972;SDS011;65693;49.798;10.968;2023-03-05T14:11:57;3.58;;;1.80;;
49972;SDS011;65693;49.798;10.968;2023-03-05T14:14:27;3.50;;;1.48;;
49972;SDS011;65693;49.798;10.968;2023-03-05T14:20:16;3.15;;;1.48;;
49972;SDS011;65693;49.798;10.968;2023-03-05T14:22:48;3.20;;;1.50;;
49972;SDS011;65693;49.798;10.968;2023-03-05T14:25:27;4.63;;;1.40;;
49972;SDS011;65693;49.798;10.968;2023-03-05T14:28:20;2.63;;;1.20;;
49972;SDS011;65693;49.798;10.968;2023-03-05T14:30:54;4.88;;;1.40;;
49972;SDS011;65693;49.798;10.968;2023-03-05T14:33:25;3.30;;;1.40;;
49972;SDS011;65693;49.798;10.968;2023-03-05T14:36:07;2.55;;;1.30;;
49972;SDS011;65693;49.798;10.968;2023-03-05T14:38:38;3.75;;;1.48;;
49972;SDS011;65693;49.798;10.968;2023-03-05T14:44:00;5.35;;;1.35;;
49972;SDS011;65693;49.798;10.968;2023-03-05T14:46:26;2.67;;;1.33;;
49972;SDS011;65693;49.798;10.968;2023-03-05T14:48:55;2.05;;;1.27;;
49972;SDS011;65693;49.798;10.968;2023-03-05T14:51:25;3.60;;;1.30;;
49972;SDS011;65693;49.798;10.968;2023-03-05T14:53:52;4.68;;;1.45;;
49972;SDS011;65693;49.798;10.968;2023-03-05T14:56:21;2.78;;;1.38;;
49972;SDS011;65693;49.798;10.968;2023-03-05T14:58:52;3.08;;;1.30;;
49972;SDS011;65693;49.798;10.968;2023-03-05T15:01:20;3.25;;;1.30;;
49972;SDS011;65693;49.798;10.968;2023-03-05T15:03:49;2.85;;;1.27;;
49972;SDS011;65693;49.798;10.968;2023-03-05T15:06:17;3.55;;;1.35;;
49972;SDS011;65693;49.798;10.968;2023-03-05T15:08:47;3.05;;;1.40;;
49972;SDS011;65693;49.798;10.968;2023-03-05T15:11:15;3.00;;;1.50;;
49972;SDS011;65693;49.798;10.968;2023-03-05T15:13:46;3.03;;;1.40;;
49972;SDS011;65693;49.798;10.968;2023-03-05T15:16:16;2.88;;;1.38;;
49972;SDS011;65693;49.798;10.968;2023-03-05T15:18:46;2.85;;;1.20;;
49972;SDS011;65693;49.798;10.968;2023-03-05T15:21:19;2.10;;;1.27;;
49972;SDS011;65693;49.798;10.968;2023-03-05T15:23:45;2.17;;;1.17;;
49972;SDS011;65693;49.798;10.968;2023-03-05T15:26:13;3.28;;;1.52;;
49972;SDS011;65693;49.798;10.968;2023-03-05T15:28:41;3.05;;;1.30;;
49972;SDS011;65693;49.798;10.968;2023-03-05T15:31:08;3.17;;;1.92;;
49972;SDS011;65693;49.798;10.968;2023-03-05T15:33:36;2.50;;;1.27;;
49972;SDS011;65693;49.798;10.968;2023-03-05T15:36:06;3.28;;;1.33;;
49972;SDS011;65693;49.798;10.968;2023-03-05T15:38:35;2.28;;;1.20;;
49972;SDS011;65693;49.798;10.968;2023-03-05T15:41:03;2.58;;;1.05;;
49972;SDS011;65693;49.798;10.968;2023-03-05T15:43:35;2.15;;;1.40;;
49972;SDS011;65693;49.798;10.968;2023-03-05T15:46:03;2.38;;;1.13;;
49972;SDS011;65693;49.798;10.968;2023-03-05T15:48:31;3.13;;;1.50;;